sensor_id;sensor_type;location;lat;lon;timestamp;pressure;altitude;pressure_sealevel;temperature;humidity
16777;BME280;8505;49.456;8.164;2023-02-28T00:01:05;100725.19;;;-0.27;63.13
16777;BME280;8505;49.456;8.164;2023-02-28T00:03:34;100727.19;;;-0.50;64.03
16777;BME280;8505;49.456;8.164;2023-02-28T00:06:03;100727.75;;;-0.10;62.96
16777;BME280;8505;49.456;8.164;2023-02-28T00:08:31;100730.09;;;-0.38;63.44
16777;BME280;8505;49.456;8.164;2023-02-28T00:11:01;100733.69;;;-0.58;64.48
16777;BME280;8505;49.456;8.164;2023-02-28T00:13:29;100727.38;;;-0.37;63.83
16777;BME280;8505;49.456;8.164;2023-02-28T00:16:00;100725.41;;;-0.32;63.57
16777;BME280;8505;49.456;8.164;2023-02-28T00:18:28;100730.75;;;-0.18;62.90
16777;BME280;8505;49.456;8.164;2023-02-28T00:20:58;100728.53;;;0.08;62.78
16777;BME280;8505;49.456;8.164;2023-02-28T00:23:26;100737.03;;;-0.22;63.70
16777;BME280;8505;49.456;8.164;2023-02-28T00:25:54;100726.97;;;-0.12;63.22
16777;BME280;8505;49.456;8.164;2023-02-28T00:28:22;100732.75;;;-0.23;63.64
16777;BME280;8505;49.456;8.164;2023-02-28T00:30:50;100729.97;;;-0.03;63.63
16777;BME280;8505;49.456;8.164;2023-02-28T00:33:18;100725.84;;;-0.24;63.44
16777;BME280;8505;49.456;8.164;2023-02-28T00:35:45;100720.34;;;0.15;62.90
16777;BME280;8505;49.456;8.164;2023-02-28T00:38:16;100724.75;;;-0.03;63.31
16777;BME280;8505;49.456;8.164;2023-02-28T00:40:44;100726.38;;;-0.17;63.94
16777;BME280;8505;49.456;8.164;2023-02-28T00:43:11;100718.72;;;0.13;62.92
16777;BME280;8505;49.456;8.164;2023-02-28T00:45:39;100717.41;;;0.06;63.07
16777;BME280;8505;49.456;8.164;2023-02-28T00:48:06;100717.72;;;-0.01;63.01
16777;BME280;8505;49.456;8.164;2023-02-28T00:50:34;100721.16;;;-0.17;63.95
16777;BME280;8505;49.456;8.164;2023-02-28T00:53:02;100725.91;;;-0.08;63.50
16777;BME280;8505;49.456;8.164;2023-02-28T00:55:31;100726.78;;;-0.25;64.16
16777;BME280;8505;49.456;8.164;2023-02-28T00:57:58;100727.41;;;-0.20;64.30
16777;BME280;8505;49.456;8.164;2023-02-28T01:00:26;100721.38;;;-0.05;64.05
16777;BME280;8505;49.456;8.164;2023-02-28T01:02:54;100725.09;;;-0.43;65.10
16777;BME280;8505;49.456;8.164;2023-02-28T01:05:21;100724.25;;;-0.26;64.61
16777;BME280;8505;49.456;8.164;2023-02-28T01:07:49;100724.16;;;-0.08;64.54
16777;BME280;8505;49.456;8.164;2023-02-28T01:10:17;100721.28;;;-0.19;64.82
16777;BME280;8505;49.456;8.164;2023-02-28T01:12:46;100724.81;;;-0.04;64.73
16777;BME280;8505;49.456;8.164;2023-02-28T01:15:13;100718.47;;;0.02;64.32
16777;BME280;8505;49.456;8.164;2023-02-28T01:17:41;100720.84;;;-0.11;64.79
16777;BME280;8505;49.456;8.164;2023-02-28T01:20:10;100718.56;;;-0.17;64.78
16777;BME280;8505;49.456;8.164;2023-02-28T01:22:38;100717.22;;;-0.42;65.86
16777;BME280;8505;49.456;8.164;2023-02-28T01:25:06;100721.34;;;-0.20;64.96
16777;BME280;8505;49.456;8.164;2023-02-28T01:27:34;100729.75;;;-0.15;65.30
16777;BME280;8505;49.456;8.164;2023-02-28T01:30:04;100723.66;;;-0.31;65.78
16777;BME280;8505;49.456;8.164;2023-02-28T01:32:32;100727.19;;;-0.32;65.74
16777;BME280;8505;49.456;8.164;2023-02-28T01:35:00;100722.88;;;-0.33;65.56
16777;BME280;8505;49.456;8.164;2023-02-28T01:37:28;100725.31;;;-0.30;65.39
16777;BME280;8505;49.456;8.164;2023-02-28T01:39:55;100720.13;;;-0.30;65.60
16777;BME280;8505;49.456;8.164;2023-02-28T01:42:23;100721.28;;;-0.36;66.16
16777;BME280;8505;49.456;8.164;2023-02-28T01:45:05;100722.91;;;-0.01;65.08
16777;BME280;8505;49.456;8.164;2023-02-28T01:47:35;100725.88;;;-0.41;66.36
16777;BME280;8505;49.456;8.164;2023-02-28T01:50:06;100720.22;;;-0.49;66.52
16777;BME280;8505;49.456;8.164;2023-02-28T01:52:34;100722.56;;;-0.27;65.77
16777;BME280;8505;49.456;8.164;2023-02-28T01:55:05;100717.75;;;-0.35;66.17
16777;BME280;8505;49.456;8.164;2023-02-28T01:57:36;100717.94;;;-0.38;66.63
16777;BME280;8505;49.456;8.164;2023-02-28T02:00:09;100704.88;;;-0.21;66.31
16777;BME280;8505;49.456;8.164;2023-02-28T02:02:40;100712.56;;;-0.35;66.34
16777;BME280;8505;49.456;8.164;2023-02-28T02:05:10;100711.81;;;-0.54;67.20
16777;BME280;8505;49.456;8.164;2023-02-28T02:07:41;100710.28;;;-0.58;67.28
16777;BME280;8505;49.456;8.164;2023-02-28T02:10:13;100709.75;;;-0.65;67.53
16777;BME280;8505;49.456;8.164;2023-02-28T02:12:57;100709.81;;;-0.49;66.84
16777;BME280;8505;49.456;8.164;2023-02-28T02:15:33;100710.59;;;-0.82;68.22
16777;BME280;8505;49.456;8.164;2023-02-28T02:18:04;100713.31;;;-0.85;67.79
16777;BME280;8505;49.456;8.164;2023-02-28T02:21:07;100708.34;;;-0.89;68.08
16777;BME280;8505;49.456;8.164;2023-02-28T02:26:58;100705.38;;;-0.64;66.69
16777;BME280;8505;49.456;8.164;2023-02-28T02:29:42;100688.91;;;-1.16;68.99
16777;BME280;8505;49.456;8.164;2023-02-28T02:32:26;100692.16;;;-0.94;68.39
16777;BME280;8505;49.456;8.164;2023-02-28T02:35:01;100693.00;;;-0.94;68.79
16777;BME280;8505;49.456;8.164;2023-02-28T02:37:36;100702.63;;;-0.78;67.48
16777;BME280;8505;49.456;8.164;2023-02-28T02:40:11;100690.84;;;-0.86;68.80
16777;BME280;8505;49.456;8.164;2023-02-28T02:42:46;100695.03;;;-1.17;68.67
16777;BME280;8505;49.456;8.164;2023-02-28T02:45:22;100701.97;;;-1.18;68.63
16777;BME280;8505;49.456;8.164;2023-02-28T02:47:51;100699.16;;;-0.96;68.36
16777;BME280;8505;49.456;8.164;2023-02-28T02:50:25;100697.47;;;-0.97;68.53
16777;BME280;8505;49.456;8.164;2023-02-28T02:52:56;100695.00;;;-0.82;68.17
16777;BME280;8505;49.456;8.164;2023-02-28T02:55:26;100697.47;;;-0.97;68.45
16777;BME280;8505;49.456;8.164;2023-02-28T02:57:58;100697.06;;;-0.88;68.66
16777;BME280;8505;49.456;8.164;2023-02-28T03:00:31;100703.03;;;-1.22;69.40
16777;BME280;8505;49.456;8.164;2023-02-28T03:03:01;100703.50;;;-1.14;69.58
16777;BME280;8505;49.456;8.164;2023-02-28T03:05:35;100701.34;;;-1.23;69.14
16777;BME280;8505;49.456;8.164;2023-02-28T03:08:07;100705.41;;;-1.17;69.60
16777;BME280;8505;49.456;8.164;2023-02-28T03:10:37;100705.94;;;-1.11;68.33
16777;BME280;8505;49.456;8.164;2023-02-28T03:13:19;100701.97;;;-1.18;68.82
16777;BME280;8505;49.456;8.164;2023-02-28T03:16:00;100697.66;;;-1.36;69.39
16777;BME280;8505;49.456;8.164;2023-02-28T03:18:36;100692.34;;;-0.99;68.69
16777;BME280;8505;49.456;8.164;2023-02-28T03:21:14;100697.44;;;-1.32;69.57
16777;BME280;8505;49.456;8.164;2023-02-28T03:23:52;100695.53;;;-1.28;69.93
16777;BME280;8505;49.456;8.164;2023-02-28T03:26:25;100705.28;;;-1.33;69.47
16777;BME280;8505;49.456;8.164;2023-02-28T03:29:02;100689.31;;;-1.07;69.49
16777;BME280;8505;49.456;8.164;2023-02-28T03:31:36;100689.16;;;-1.04;69.30
16777;BME280;8505;49.456;8.164;2023-02-28T03:34:08;100693.56;;;-1.42;69.91
16777;BME280;8505;49.456;8.164;2023-02-28T03:36:41;100694.59;;;-1.27;69.67
16777;BME280;8505;49.456;8.164;2023-02-28T03:39:14;100693.63;;;-1.25;70.21
16777;BME280;8505;49.456;8.164;2023-02-28T03:41:46;100694.38;;;-1.23;68.98
16777;BME280;8505;49.456;8.164;2023-02-28T03:44:20;100691.25;;;-1.48;70.13
16777;BME280;8505;49.456;8.164;2023-02-28T03:46:53;100691.41;;;-1.32;70.54
16777;BME280;8505;49.456;8.164;2023-02-28T03:49:24;100689.88;;;-1.55;71.17
16777;BME280;8505;49.456;8.164;2023-02-28T03:51:58;100697.94;;;-1.24;70.15
16777;BME280;8505;49.456;8.164;2023-02-28T03:54:31;100696.09;;;-1.40;70.46
16777;BME280;8505;49.456;8.164;2023-02-28T03:57:03;100699.56;;;-1.77;71.65
16777;BME280;8505;49.456;8.164;2023-02-28T03:59:36;100691.38;;;-1.68;71.79
16777;BME280;8505;49.456;8.164;2023-02-28T04:02:04;100687.19;;;-1.53;70.65
16777;BME280;8505;49.456;8.164;2023-02-28T04:04:32;100697.59;;;-1.72;71.59
16777;BME280;8505;49.456;8.164;2023-02-28T04:07:06;100690.34;;;-1.84;72.70
16777;BME280;8505;49.456;8.164;2023-02-28T04:09:35;100689.31;;;-1.43;71.31
16777;BME280;8505;49.456;8.164;2023-02-28T04:12:03;100687.59;;;-1.25;70.06
16777;BME280;8505;49.456;8.164;2023-02-28T04:14:31;100690.94;;;-1.23;70.38
16777;BME280;8505;49.456;8.164;2023-02-28T04:16:58;100693.34;;;-1.18;69.45
16777;BME280;8505;49.456;8.164;2023-02-28T04:19:26;100690.50;;;-1.50;70.51
16777;BME280;8505;49.456;8.164;2023-02-28T04:21:54;100689.78;;;-1.35;70.40
16777;BME280;8505;49.456;8.164;2023-02-28T04:24:27;100686.06;;;-1.67;71.73
16777;BME280;8505;49.456;8.164;2023-02-28T04:26:56;100690.16;;;-1.42;71.07
16777;BME280;8505;49.456;8.164;2023-02-28T04:29:25;100686.78;;;-1.63;71.03
16777;BME280;8505;49.456;8.164;2023-02-28T04:31:54;100685.59;;;-1.56;71.27
16777;BME280;8505;49.456;8.164;2023-02-28T04:34:24;100688.88;;;-1.52;71.51
16777;BME280;8505;49.456;8.164;2023-02-28T04:36:52;100687.34;;;-1.56;71.54
16777;BME280;8505;49.456;8.164;2023-02-28T04:39:39;100686.78;;;-1.63;71.55
16777;BME280;8505;49.456;8.164;2023-02-28T04:42:07;100692.59;;;-1.39;71.36
16777;BME280;8505;49.456;8.164;2023-02-28T04:44:35;100685.16;;;-1.47;71.16
16777;BME280;8505;49.456;8.164;2023-02-28T04:47:03;100692.38;;;-1.53;71.32
16777;BME280;8505;49.456;8.164;2023-02-28T04:49:31;100688.59;;;-1.46;71.18
16777;BME280;8505;49.456;8.164;2023-02-28T04:51:58;100685.25;;;-1.48;70.91
16777;BME280;8505;49.456;8.164;2023-02-28T04:54:26;100697.09;;;-1.43;71.30
16777;BME280;8505;49.456;8.164;2023-02-28T04:56:56;100694.81;;;-1.86;72.95
16777;BME280;8505;49.456;8.164;2023-02-28T04:59:23;100691.69;;;-1.57;72.30
16777;BME280;8505;49.456;8.164;2023-02-28T05:01:51;100691.84;;;-1.79;73.43
16777;BME280;8505;49.456;8.164;2023-02-28T05:04:19;100695.84;;;-1.72;73.10
16777;BME280;8505;49.456;8.164;2023-02-28T05:06:47;100702.09;;;-1.76;72.50
16777;BME280;8505;49.456;8.164;2023-02-28T05:09:15;100700.06;;;-1.88;73.59
16777;BME280;8505;49.456;8.164;2023-02-28T05:11:42;100704.34;;;-1.87;73.53
16777;BME280;8505;49.456;8.164;2023-02-28T05:14:13;100697.84;;;-1.97;73.71
16777;BME280;8505;49.456;8.164;2023-02-28T05:16:41;100701.03;;;-1.72;72.90
16777;BME280;8505;49.456;8.164;2023-02-28T05:19:09;100696.94;;;-1.96;73.60
16777;BME280;8505;49.456;8.164;2023-02-28T05:21:38;100702.91;;;-1.94;73.90
16777;BME280;8505;49.456;8.164;2023-02-28T05:24:10;100704.63;;;-1.74;73.37
16777;BME280;8505;49.456;8.164;2023-02-28T05:26:40;100711.22;;;-1.86;73.46
16777;BME280;8505;49.456;8.164;2023-02-28T05:29:08;100706.63;;;-1.99;74.31
16777;BME280;8505;49.456;8.164;2023-02-28T05:31:38;100717.25;;;-1.85;73.89
16777;BME280;8505;49.456;8.164;2023-02-28T05:34:06;100712.25;;;-1.52;73.00
16777;BME280;8505;49.456;8.164;2023-02-28T05:36:33;100710.84;;;-1.41;72.32
16777;BME280;8505;49.456;8.164;2023-02-28T05:39:05;100713.81;;;-1.30;71.98
16777;BME280;8505;49.456;8.164;2023-02-28T05:41:32;100707.97;;;-1.53;72.92
16777;BME280;8505;49.456;8.164;2023-02-28T05:44:00;100712.97;;;-1.30;72.24
16777;BME280;8505;49.456;8.164;2023-02-28T05:46:28;100714.69;;;-1.12;71.07
16777;BME280;8505;49.456;8.164;2023-02-28T05:48:57;100719.31;;;-1.18;71.45
16777;BME280;8505;49.456;8.164;2023-02-28T05:51:26;100718.25;;;-1.14;71.34
16777;BME280;8505;49.456;8.164;2023-02-28T05:53:58;100712.88;;;-0.93;70.49
16777;BME280;8505;49.456;8.164;2023-02-28T05:56:26;100717.81;;;-1.05;71.23
16777;BME280;8505;49.456;8.164;2023-02-28T05:58:54;100720.31;;;-1.21;71.95
16777;BME280;8505;49.456;8.164;2023-02-28T06:01:31;100722.56;;;-1.32;71.81
16777;BME280;8505;49.456;8.164;2023-02-28T06:04:01;100719.06;;;-1.69;73.66
16777;BME280;8505;49.456;8.164;2023-02-28T06:06:29;100720.25;;;-1.38;72.67
16777;BME280;8505;49.456;8.164;2023-02-28T06:08:57;100724.25;;;-1.31;71.61
16777;BME280;8505;49.456;8.164;2023-02-28T06:11:25;100725.44;;;-1.38;72.00
16777;BME280;8505;49.456;8.164;2023-02-28T06:13:55;100726.34;;;-1.39;72.29
16777;BME280;8505;49.456;8.164;2023-02-28T06:16:23;100729.88;;;-1.40;73.04
16777;BME280;8505;49.456;8.164;2023-02-28T06:18:51;100736.75;;;-1.39;72.04
16777;BME280;8505;49.456;8.164;2023-02-28T06:21:23;100729.53;;;-1.51;73.02
16777;BME280;8505;49.456;8.164;2023-02-28T06:23:51;100737.88;;;-1.45;72.71
16777;BME280;8505;49.456;8.164;2023-02-28T06:26:19;100740.13;;;-1.37;72.84
16777;BME280;8505;49.456;8.164;2023-02-28T06:28:48;100735.41;;;-1.29;71.83
16777;BME280;8505;49.456;8.164;2023-02-28T06:31:17;100740.75;;;-1.70;74.36
16777;BME280;8505;49.456;8.164;2023-02-28T06:33:45;100739.06;;;-1.33;72.76
16777;BME280;8505;49.456;8.164;2023-02-28T06:36:14;100744.69;;;-1.42;73.08
16777;BME280;8505;49.456;8.164;2023-02-28T06:38:43;100750.56;;;-1.57;72.82
16777;BME280;8505;49.456;8.164;2023-02-28T06:41:11;100739.19;;;-1.17;72.97
16777;BME280;8505;49.456;8.164;2023-02-28T06:43:40;100740.09;;;-1.18;71.79
16777;BME280;8505;49.456;8.164;2023-02-28T06:46:11;100745.09;;;-1.14;71.79
16777;BME280;8505;49.456;8.164;2023-02-28T06:48:39;100747.19;;;-1.41;72.45
16777;BME280;8505;49.456;8.164;2023-02-28T06:51:10;100750.31;;;-1.51;73.32
16777;BME280;8505;49.456;8.164;2023-02-28T06:53:40;100750.97;;;-1.67;74.16
16777;BME280;8505;49.456;8.164;2023-02-28T06:56:10;100756.28;;;-1.49;73.45
16777;BME280;8505;49.456;8.164;2023-02-28T06:58:39;100755.81;;;-1.03;72.73
16777;BME280;8505;49.456;8.164;2023-02-28T07:01:07;100756.56;;;-0.65;71.94
16777;BME280;8505;49.456;8.164;2023-02-28T07:03:35;100759.78;;;-0.96;71.22
16777;BME280;8505;49.456;8.164;2023-02-28T07:06:05;100750.72;;;-0.87;72.09
16777;BME280;8505;49.456;8.164;2023-02-28T07:08:33;100760.06;;;-0.49;71.62
16777;BME280;8505;49.456;8.164;2023-02-28T07:11:02;100765.81;;;-0.59;70.96
16777;BME280;8505;49.456;8.164;2023-02-28T07:13:31;100765.53;;;-0.89;71.28
16777;BME280;8505;49.456;8.164;2023-02-28T07:16:01;100777.38;;;-0.48;70.94
16777;BME280;8505;49.456;8.164;2023-02-28T07:18:29;100772.09;;;-0.46;70.80
16777;BME280;8505;49.456;8.164;2023-02-28T07:20:57;100771.41;;;-0.32;69.82
16777;BME280;8505;49.456;8.164;2023-02-28T07:23:25;100776.53;;;-1.01;71.16
16777;BME280;8505;49.456;8.164;2023-02-28T07:25:52;100776.63;;;-0.86;70.96
16777;BME280;8505;49.456;8.164;2023-02-28T07:28:20;100778.69;;;-0.56;69.96
16777;BME280;8505;49.456;8.164;2023-02-28T07:30:49;100779.28;;;-0.68;70.27
16777;BME280;8505;49.456;8.164;2023-02-28T07:33:17;100776.53;;;-0.48;69.93
16777;BME280;8505;49.456;8.164;2023-02-28T07:35:45;100778.78;;;-0.94;71.44
16777;BME280;8505;49.456;8.164;2023-02-28T07:38:13;100782.06;;;-0.73;70.38
16777;BME280;8505;49.456;8.164;2023-02-28T07:40:41;100780.88;;;-0.66;70.67
16777;BME280;8505;49.456;8.164;2023-02-28T07:43:08;100781.03;;;-0.69;70.80
16777;BME280;8505;49.456;8.164;2023-02-28T07:45:36;100774.25;;;-0.20;69.10
16777;BME280;8505;49.456;8.164;2023-02-28T07:48:06;100775.97;;;-0.55;70.06
16777;BME280;8505;49.456;8.164;2023-02-28T07:50:36;100784.25;;;-0.64;70.59
16777;BME280;8505;49.456;8.164;2023-02-28T07:53:04;100778.50;;;-0.02;68.95
16777;BME280;8505;49.456;8.164;2023-02-28T07:55:32;100780.19;;;-0.01;68.15
16777;BME280;8505;49.456;8.164;2023-02-28T07:58:00;100782.50;;;-0.63;69.35
16777;BME280;8505;49.456;8.164;2023-02-28T08:00:27;100781.34;;;-0.23;68.97
16777;BME280;8505;49.456;8.164;2023-02-28T08:02:57;100779.22;;;-0.32;68.37
16777;BME280;8505;49.456;8.164;2023-02-28T08:05:26;100776.91;;;-0.21;68.20
16777;BME280;8505;49.456;8.164;2023-02-28T08:07:54;100780.66;;;-0.10;67.97
16777;BME280;8505;49.456;8.164;2023-02-28T08:10:22;100775.41;;;0.40;66.76
16777;BME280;8505;49.456;8.164;2023-02-28T08:12:50;100772.03;;;0.23;66.82
16777;BME280;8505;49.456;8.164;2023-02-28T08:15:18;100779.81;;;-0.10;67.69
16777;BME280;8505;49.456;8.164;2023-02-28T08:17:45;100775.09;;;0.47;66.57
16777;BME280;8505;49.456;8.164;2023-02-28T08:20:13;100776.31;;;0.24;66.60
16777;BME280;8505;49.456;8.164;2023-02-28T08:22:43;100775.03;;;0.48;65.68
16777;BME280;8505;49.456;8.164;2023-02-28T08:25:11;100773.91;;;0.04;67.40
16777;BME280;8505;49.456;8.164;2023-02-28T08:27:39;100777.13;;;0.57;66.09
16777;BME280;8505;49.456;8.164;2023-02-28T08:30:09;100778.13;;;0.55;65.97
16777;BME280;8505;49.456;8.164;2023-02-28T08:32:38;100774.88;;;0.67;65.18
16777;BME280;8505;49.456;8.164;2023-02-28T08:35:07;100766.28;;;0.80;64.55
16777;BME280;8505;49.456;8.164;2023-02-28T08:37:35;100768.13;;;0.94;64.53
16777;BME280;8505;49.456;8.164;2023-02-28T08:40:06;100772.81;;;1.19;63.52
16777;BME280;8505;49.456;8.164;2023-02-28T08:42:34;100763.59;;;0.82;63.61
16777;BME280;8505;49.456;8.164;2023-02-28T08:45:03;100762.34;;;1.05;62.97
16777;BME280;8505;49.456;8.164;2023-02-28T08:47:31;100766.13;;;1.45;62.78
16777;BME280;8505;49.456;8.164;2023-02-28T08:49:59;100761.53;;;1.34;62.58
16777;BME280;8505;49.456;8.164;2023-02-28T08:52:27;100769.22;;;1.51;61.65
16777;BME280;8505;49.456;8.164;2023-02-28T08:54:54;100764.41;;;1.30;62.86
16777;BME280;8505;49.456;8.164;2023-02-28T08:57:24;100760.59;;;1.35;62.15
16777;BME280;8505;49.456;8.164;2023-02-28T08:59:52;100763.38;;;1.32;61.84
16777;BME280;8505;49.456;8.164;2023-02-28T09:02:20;100759.97;;;1.76;61.61
16777;BME280;8505;49.456;8.164;2023-02-28T09:04:47;100756.66;;;2.30;59.16
16777;BME280;8505;49.456;8.164;2023-02-28T09:07:15;100761.88;;;2.59;59.37
16777;BME280;8505;49.456;8.164;2023-02-28T09:09:43;100756.84;;;2.13;58.79
16777;BME280;8505;49.456;8.164;2023-02-28T09:12:21;100757.97;;;2.37;58.31
16777;BME280;8505;49.456;8.164;2023-02-28T09:14:51;100752.09;;;2.20;57.13
16777;BME280;8505;49.456;8.164;2023-02-28T09:17:19;100760.00;;;2.18;57.85
16777;BME280;8505;49.456;8.164;2023-02-28T09:19:48;100764.28;;;1.91;58.32
16777;BME280;8505;49.456;8.164;2023-02-28T09:22:16;100759.72;;;2.37;56.87
16777;BME280;8505;49.456;8.164;2023-02-28T09:24:43;100750.25;;;2.77;55.06
16777;BME280;8505;49.456;8.164;2023-02-28T09:27:11;100755.69;;;3.28;53.79
16777;BME280;8505;49.456;8.164;2023-02-28T09:29:39;100747.50;;;2.93;53.92
16777;BME280;8505;49.456;8.164;2023-02-28T09:32:08;100756.94;;;2.26;55.93
16777;BME280;8505;49.456;8.164;2023-02-28T09:34:37;100747.38;;;2.67;55.23
16777;BME280;8505;49.456;8.164;2023-02-28T09:37:05;100752.31;;;2.72;54.30
16777;BME280;8505;49.456;8.164;2023-02-28T09:39:32;100749.25;;;3.06;54.07
16777;BME280;8505;49.456;8.164;2023-02-28T09:42:02;100754.03;;;3.79;51.90
16777;BME280;8505;49.456;8.164;2023-02-28T09:44:35;100749.28;;;3.58;51.50
16777;BME280;8505;49.456;8.164;2023-02-28T09:47:10;100743.03;;;4.37;49.99
16777;BME280;8505;49.456;8.164;2023-02-28T09:49:42;100739.22;;;4.90;48.63
16777;BME280;8505;49.456;8.164;2023-02-28T09:52:17;100736.44;;;4.19;49.31
16777;BME280;8505;49.456;8.164;2023-02-28T09:54:46;100734.66;;;4.32;48.73
16777;BME280;8505;49.456;8.164;2023-02-28T09:57:18;100736.59;;;5.14;47.70
16777;BME280;8505;49.456;8.164;2023-02-28T09:59:54;100732.25;;;5.60;47.00
16777;BME280;8505;49.456;8.164;2023-02-28T10:02:45;100738.88;;;5.42;46.87
16777;BME280;8505;49.456;8.164;2023-02-28T10:05:17;100736.81;;;5.81;45.80
16777;BME280;8505;49.456;8.164;2023-02-28T10:07:55;100739.09;;;4.92;46.83
16777;BME280;8505;49.456;8.164;2023-02-28T10:10:29;100727.94;;;5.59;44.59
16777;BME280;8505;49.456;8.164;2023-02-28T10:13:02;100731.06;;;6.11;44.62
16777;BME280;8505;49.456;8.164;2023-02-28T10:15:34;100733.19;;;5.94;44.66
16777;BME280;8505;49.456;8.164;2023-02-28T10:18:08;100731.63;;;4.98;46.67
16777;BME280;8505;49.456;8.164;2023-02-28T10:20:41;100735.97;;;5.10;46.09
16777;BME280;8505;49.456;8.164;2023-02-28T10:23:15;100735.03;;;4.87;47.01
16777;BME280;8505;49.456;8.164;2023-02-28T10:25:47;100720.81;;;5.73;45.08
16777;BME280;8505;49.456;8.164;2023-02-28T10:28:17;100731.19;;;7.08;43.62
16777;BME280;8505;49.456;8.164;2023-02-28T10:30:47;100728.66;;;7.06;42.22
16777;BME280;8505;49.456;8.164;2023-02-28T10:33:23;100727.09;;;7.04;42.51
16777;BME280;8505;49.456;8.164;2023-02-28T10:35:52;100729.56;;;5.49;43.74
16777;BME280;8505;49.456;8.164;2023-02-28T10:38:22;100728.25;;;6.79;43.80
16777;BME280;8505;49.456;8.164;2023-02-28T10:40:51;100729.03;;;6.25;42.07
16777;BME280;8505;49.456;8.164;2023-02-28T10:43:21;100731.28;;;6.52;41.91
16777;BME280;8505;49.456;8.164;2023-02-28T10:45:57;100734.38;;;5.55;43.11
16777;BME280;8505;49.456;8.164;2023-02-28T10:48:38;100734.63;;;5.63;43.15
16777;BME280;8505;49.456;8.164;2023-02-28T10:51:08;100732.22;;;5.25;43.20
16777;BME280;8505;49.456;8.164;2023-02-28T10:53:39;100722.41;;;5.16;44.85
16777;BME280;8505;49.456;8.164;2023-02-28T10:56:26;100721.13;;;5.92;42.47
16777;BME280;8505;49.456;8.164;2023-02-28T10:58:56;100715.59;;;5.14;44.59
16777;BME280;8505;49.456;8.164;2023-02-28T11:01:35;100709.88;;;5.90;42.53
16777;BME280;8505;49.456;8.164;2023-02-28T11:04:16;100712.75;;;7.08;41.50
16777;BME280;8505;49.456;8.164;2023-02-28T11:06:57;100713.75;;;7.27;38.58
16777;BME280;8505;49.456;8.164;2023-02-28T11:09:28;100705.72;;;7.29;39.17
16777;BME280;8505;49.456;8.164;2023-02-28T11:11:58;100712.75;;;6.65;40.05
16777;BME280;8505;49.456;8.164;2023-02-28T11:14:28;100720.38;;;5.90;42.40
16777;BME280;8505;49.456;8.164;2023-02-28T11:17:02;100719.72;;;5.75;42.20
16777;BME280;8505;49.456;8.164;2023-02-28T11:19:44;100707.72;;;7.05;39.78
16777;BME280;8505;49.456;8.164;2023-02-28T11:22:17;100714.63;;;6.74;40.37
16777;BME280;8505;49.456;8.164;2023-02-28T11:24:48;100716.09;;;6.00;41.14
16777;BME280;8505;49.456;8.164;2023-02-28T11:27:44;100713.59;;;5.98;41.17
16777;BME280;8505;49.456;8.164;2023-02-28T11:30:27;100712.41;;;6.14;41.14
16777;BME280;8505;49.456;8.164;2023-02-28T11:32:55;100706.53;;;6.32;40.81
16777;BME280;8505;49.456;8.164;2023-02-28T11:35:29;100710.31;;;6.73;39.62
16777;BME280;8505;49.456;8.164;2023-02-28T11:37:57;100704.34;;;6.71;40.11
16777;BME280;8505;49.456;8.164;2023-02-28T11:40:31;100716.19;;;7.19;39.22
16777;BME280;8505;49.456;8.164;2023-02-28T11:43:08;100701.44;;;7.69;38.20
16777;BME280;8505;49.456;8.164;2023-02-28T11:45:54;100693.88;;;8.37;36.36
16777;BME280;8505;49.456;8.164;2023-02-28T11:48:27;100705.16;;;7.46;37.84
16777;BME280;8505;49.456;8.164;2023-02-28T11:51:08;100702.63;;;6.16;40.48
16777;BME280;8505;49.456;8.164;2023-02-28T11:54:03;100707.97;;;6.03;40.87
16777;BME280;8505;49.456;8.164;2023-02-28T11:56:38;100691.66;;;7.60;38.25
16777;BME280;8505;49.456;8.164;2023-02-28T11:59:33;100686.19;;;7.94;38.03
16777;BME280;8505;49.456;8.164;2023-02-28T12:02:20;100681.88;;;7.30;38.39
16777;BME280;8505;49.456;8.164;2023-02-28T12:05:04;100706.97;;;5.36;41.81
16777;BME280;8505;49.456;8.164;2023-02-28T12:07:43;100707.25;;;4.72;43.91
16777;BME280;8505;49.456;8.164;2023-02-28T12:10:20;100703.09;;;5.52;42.88
16777;BME280;8505;49.456;8.164;2023-02-28T12:12:59;100698.97;;;5.37;43.63
16777;BME280;8505;49.456;8.164;2023-02-28T12:15:49;100698.28;;;5.46;43.49
16777;BME280;8505;49.456;8.164;2023-02-28T12:18:41;100698.47;;;7.21;40.84
16777;BME280;8505;49.456;8.164;2023-02-28T12:21:18;100689.97;;;7.80;38.03
16777;BME280;8505;49.456;8.164;2023-02-28T12:24:05;100690.25;;;7.77;38.14
16777;BME280;8505;49.456;8.164;2023-02-28T12:26:39;100690.41;;;7.85;38.25
16777;BME280;8505;49.456;8.164;2023-02-28T12:29:14;100687.22;;;7.61;38.93
16777;BME280;8505;49.456;8.164;2023-02-28T12:31:49;100696.66;;;6.79;42.07
16777;BME280;8505;49.456;8.164;2023-02-28T12:34:22;100698.88;;;7.06;40.78
16777;BME280;8505;49.456;8.164;2023-02-28T12:36:52;100682.25;;;7.88;39.19
16777;BME280;8505;49.456;8.164;2023-02-28T12:39:25;100691.25;;;6.91;39.01
16777;BME280;8505;49.456;8.164;2023-02-28T12:41:59;100684.09;;;7.46;38.29
16777;BME280;8505;49.456;8.164;2023-02-28T12:44:33;100683.53;;;6.68;39.88
16777;BME280;8505;49.456;8.164;2023-02-28T12:47:04;100682.16;;;7.27;40.29
16777;BME280;8505;49.456;8.164;2023-02-28T12:49:34;100665.38;;;8.00;37.99
16777;BME280;8505;49.456;8.164;2023-02-28T12:52:04;100673.53;;;7.97;38.01
16777;BME280;8505;49.456;8.164;2023-02-28T12:54:39;100676.78;;;8.01;37.66
16777;BME280;8505;49.456;8.164;2023-02-28T12:57:12;100684.06;;;7.25;39.06
16777;BME280;8505;49.456;8.164;2023-02-28T12:59:48;100677.19;;;6.70;40.67
16777;BME280;8505;49.456;8.164;2023-02-28T13:05:52;100680.75;;;7.12;39.66
16777;BME280;8505;49.456;8.164;2023-02-28T13:11:29;100670.38;;;6.68;40.63
16777;BME280;8505;49.456;8.164;2023-02-28T13:14:00;100672.34;;;7.18;39.98
16777;BME280;8505;49.456;8.164;2023-02-28T13:16:28;100663.56;;;7.08;39.16
16777;BME280;8505;49.456;8.164;2023-02-28T13:19:17;100660.88;;;7.40;39.92
16777;BME280;8505;49.456;8.164;2023-02-28T13:21:47;100678.25;;;6.68;39.96
16777;BME280;8505;49.456;8.164;2023-02-28T13:24:39;100672.88;;;7.12;40.15
16777;BME280;8505;49.456;8.164;2023-02-28T13:27:22;100673.69;;;7.13;39.67
16777;BME280;8505;49.456;8.164;2023-02-28T13:29:52;100670.06;;;5.83;41.30
16777;BME280;8505;49.456;8.164;2023-02-28T13:32:33;100674.75;;;5.91;41.96
16777;BME280;8505;49.456;8.164;2023-02-28T13:38:16;100669.22;;;6.93;42.13
16777;BME280;8505;49.456;8.164;2023-02-28T13:40:44;100676.03;;;7.68;45.86